sensor_id;sensor_type;location;lat;lon;timestamp;P1;durP1;ratioP1;P2;durP2;ratioP2
29044;SDS011;16133;49.486;12.176;2022-12-20T00:00:44;56.55;;;22.38;;
29044;SDS011;16133;49.486;12.176;2022-12-20T00:03:10;56.33;;;21.85;;
29044;SDS011;16133;49.486;12.176;2022-12-20T00:05:36;58.53;;;22.23;;
29044;SDS011;16133;49.486;12.176;2022-12-20T00:08:02;56.03;;;21.67;;
29044;SDS011;16133;49.486;12.176;2022-12-20T00:10:27;55.72;;;21.95;;
29044;SDS011;16133;49.486;12.176;2022-12-20T00:12:53;46.63;;;19.63;;
29044;SDS011;16133;49.486;12.176;2022-12-20T00:15:19;51.00;;;20.17;;
29044;SDS011;16133;49.486;12.176;2022-12-20T00:17:44;51.42;;;20.15;;
29044;SDS011;16133;49.486;12.176;2022-12-20T00:20:11;58.53;;;20.02;;
29044;SDS011;16133;49.486;12.176;2022-12-20T00:22:36;47.22;;;18.73;;
29044;SDS011;16133;49.486;12.176;2022-12-20T00:25:02;55.08;;;20.23;;
29044;SDS011;16133;49.486;12.176;2022-12-20T00:27:28;61.58;;;20.58;;
29044;SDS011;16133;49.486;12.176;2022-12-20T00:29:54;53.13;;;19.60;;
29044;SDS011;16133;49.486;12.176;2022-12-20T00:32:19;46.10;;;18.33;;
29044;SDS011;16133;49.486;12.176;2022-12-20T00:34:44;48.67;;;19.52;;
29044;SDS011;16133;49.486;12.176;2022-12-20T00:37:10;47.83;;;20.23;;
29044;SDS011;16133;49.486;12.176;2022-12-20T00:39:35;42.55;;;18.15;;
29044;SDS011;16133;49.486;12.176;2022-12-20T00:42:01;45.83;;;18.63;;
29044;SDS011;16133;49.486;12.176;2022-12-20T00:44:26;45.83;;;17.95;;
29044;SDS011;16133;49.486;12.176;2022-12-20T00:46:52;56.33;;;19.48;;
29044;SDS011;16133;49.486;12.176;2022-12-20T00:49:18;53.03;;;19.95;;
29044;SDS011;16133;49.486;12.176;2022-12-20T00:51:43;58.55;;;20.73;;
29044;SDS011;16133;49.486;12.176;2022-12-20T00:54:08;52.30;;;19.40;;
29044;SDS011;16133;49.486;12.176;2022-12-20T00:56:34;50.33;;;19.00;;
29044;SDS011;16133;49.486;12.176;2022-12-20T00:58:59;55.42;;;19.80;;
29044;SDS011;16133;49.486;12.176;2022-12-20T01:01:26;47.33;;;18.25;;
29044;SDS011;16133;49.486;12.176;2022-12-20T01:03:54;48.08;;;18.00;;
29044;SDS011;16133;49.486;12.176;2022-12-20T01:06:19;45.28;;;17.98;;
29044;SDS011;16133;49.486;12.176;2022-12-20T01:08:46;50.80;;;18.48;;
29044;SDS011;16133;49.486;12.176;2022-12-20T01:11:18;44.50;;;16.95;;
29044;SDS011;16133;49.486;12.176;2022-12-20T01:13:47;45.88;;;17.63;;
29044;SDS011;16133;49.486;12.176;2022-12-20T01:16:47;51.40;;;18.30;;
29044;SDS011;16133;49.486;12.176;2022-12-20T01:19:10;48.50;;;17.95;;
29044;SDS011;16133;49.486;12.176;2022-12-20T01:21:37;47.47;;;18.65;;
29044;SDS011;16133;49.486;12.176;2022-12-20T01:24:08;48.92;;;19.77;;
29044;SDS011;16133;49.486;12.176;2022-12-20T01:26:36;51.10;;;19.35;;
29044;SDS011;16133;49.486;12.176;2022-12-20T01:29:02;49.13;;;20.30;;
29044;SDS011;16133;49.486;12.176;2022-12-20T01:31:28;46.80;;;19.45;;
29044;SDS011;16133;49.486;12.176;2022-12-20T01:33:54;49.95;;;20.17;;
29044;SDS011;16133;49.486;12.176;2022-12-20T01:36:21;47.60;;;19.52;;
29044;SDS011;16133;49.486;12.176;2022-12-20T01:39:12;49.10;;;19.27;;
29044;SDS011;16133;49.486;12.176;2022-12-20T01:41:38;46.92;;;17.92;;
29044;SDS011;16133;49.486;12.176;2022-12-20T01:44:52;50.97;;;19.88;;
29044;SDS011;16133;49.486;12.176;2022-12-20T01:46:50;52.90;;;19.60;;
29044;SDS011;16133;49.486;12.176;2022-12-20T01:52:04;50.25;;;19.38;;
29044;SDS011;16133;49.486;12.176;2022-12-20T01:54:47;42.65;;;18.40;;
29044;SDS011;16133;49.486;12.176;2022-12-20T01:57:30;45.90;;;17.88;;
29044;SDS011;16133;49.486;12.176;2022-12-20T02:00:00;43.72;;;17.27;;
29044;SDS011;16133;49.486;12.176;2022-12-20T02:02:28;42.85;;;18.10;;
29044;SDS011;16133;49.486;12.176;2022-12-20T02:04:55;47.15;;;18.23;;
29044;SDS011;16133;49.486;12.176;2022-12-20T02:07:23;44.78;;;18.10;;
29044;SDS011;16133;49.486;12.176;2022-12-20T02:09:51;50.78;;;18.25;;
29044;SDS011;16133;49.486;12.176;2022-12-20T02:12:22;42.08;;;17.05;;
29044;SDS011;16133;49.486;12.176;2022-12-20T02:30:37;52.25;;;20.00;;
29044;SDS011;16133;49.486;12.176;2022-12-20T02:33:12;51.85;;;19.83;;
29044;SDS011;16133;49.486;12.176;2022-12-20T02:35:38;55.42;;;20.92;;
29044;SDS011;16133;49.486;12.176;2022-12-20T02:41:09;52.42;;;19.77;;
29044;SDS011;16133;49.486;12.176;2022-12-20T02:43:41;55.03;;;20.30;;
29044;SDS011;16133;49.486;12.176;2022-12-20T02:46:28;46.78;;;19.15;;
29044;SDS011;16133;49.486;12.176;2022-12-20T02:48:59;49.67;;;19.75;;
29044;SDS011;16133;49.486;12.176;2022-12-20T02:51:27;53.58;;;20.88;;
29044;SDS011;16133;49.486;12.176;2022-12-20T02:53:56;58.67;;;21.10;;
29044;SDS011;16133;49.486;12.176;2022-12-20T02:56:27;45.47;;;19.15;;
29044;SDS011;16133;49.486;12.176;2022-12-20T02:58:58;46.88;;;19.92;;
29044;SDS011;16133;49.486;12.176;2022-12-20T03:01:31;46.47;;;18.30;;
29044;SDS011;16133;49.486;12.176;2022-12-20T03:04:00;54.03;;;20.15;;
29044;SDS011;16133;49.486;12.176;2022-12-20T03:06:26;46.22;;;18.48;;
29044;SDS011;16133;49.486;12.176;2022-12-20T03:08:52;46.72;;;19.23;;
29044;SDS011;16133;49.486;12.176;2022-12-20T03:11:17;46.58;;;18.65;;
29044;SDS011;16133;49.486;12.176;2022-12-20T03:13:44;47.25;;;18.58;;
29044;SDS011;16133;49.486;12.176;2022-12-20T03:16:09;52.30;;;19.98;;
29044;SDS011;16133;49.486;12.176;2022-12-20T03:18:35;50.15;;;18.25;;
29044;SDS011;16133;49.486;12.176;2022-12-20T03:21:00;50.85;;;19.40;;
29044;SDS011;16133;49.486;12.176;2022-12-20T03:23:26;50.15;;;20.50;;
29044;SDS011;16133;49.486;12.176;2022-12-20T03:25:51;53.10;;;21.20;;
29044;SDS011;16133;49.486;12.176;2022-12-20T03:28:17;51.42;;;20.20;;
29044;SDS011;16133;49.486;12.176;2022-12-20T03:30:42;53.25;;;20.20;;
29044;SDS011;16133;49.486;12.176;2022-12-20T03:33:08;49.53;;;20.05;;
29044;SDS011;16133;49.486;12.176;2022-12-20T03:35:34;53.20;;;18.92;;
29044;SDS011;16133;49.486;12.176;2022-12-20T03:37:59;56.85;;;20.65;;
29044;SDS011;16133;49.486;12.176;2022-12-20T03:40:24;54.53;;;20.60;;
29044;SDS011;16133;49.486;12.176;2022-12-20T03:46:12;54.22;;;20.23;;
29044;SDS011;16133;49.486;12.176;2022-12-20T03:48:38;54.03;;;20.15;;
29044;SDS011;16133;49.486;12.176;2022-12-20T03:51:03;51.30;;;19.88;;
29044;SDS011;16133;49.486;12.176;2022-12-20T03:53:29;48.40;;;19.45;;
29044;SDS011;16133;49.486;12.176;2022-12-20T03:55:55;48.25;;;18.85;;
29044;SDS011;16133;49.486;12.176;2022-12-20T03:58:20;46.25;;;20.35;;
29044;SDS011;16133;49.486;12.176;2022-12-20T04:00:45;44.97;;;18.83;;
29044;SDS011;16133;49.486;12.176;2022-12-20T04:03:11;55.90;;;19.83;;
29044;SDS011;16133;49.486;12.176;2022-12-20T04:05:37;38.45;;;18.50;;
29044;SDS011;16133;49.486;12.176;2022-12-20T04:08:02;50.72;;;20.38;;
29044;SDS011;16133;49.486;12.176;2022-12-20T04:10:27;48.92;;;19.88;;
29044;SDS011;16133;49.486;12.176;2022-12-20T04:12:53;53.75;;;20.52;;
29044;SDS011;16133;49.486;12.176;2022-12-20T04:15:18;49.08;;;18.40;;
29044;SDS011;16133;49.486;12.176;2022-12-20T04:17:44;54.22;;;20.63;;
29044;SDS011;16133;49.486;12.176;2022-12-20T04:20:12;53.35;;;19.92;;
29044;SDS011;16133;49.486;12.176;2022-12-20T04:22:48;48.72;;;18.92;;
29044;SDS011;16133;49.486;12.176;2022-12-20T04:25:16;51.97;;;20.20;;
29044;SDS011;16133;49.486;12.176;2022-12-20T04:27:43;47.35;;;18.73;;
29044;SDS011;16133;49.486;12.176;2022-12-20T04:30:09;49.22;;;19.95;;
29044;SDS011;16133;49.486;12.176;2022-12-20T04:32:35;54.50;;;20.38;;
29044;SDS011;16133;49.486;12.176;2022-12-20T04:35:01;48.05;;;19.50;;
29044;SDS011;16133;49.486;12.176;2022-12-20T04:37:28;50.17;;;18.05;;
29044;SDS011;16133;49.486;12.176;2022-12-20T04:39:54;48.95;;;19.60;;
29044;SDS011;16133;49.486;12.176;2022-12-20T04:42:20;46.78;;;18.88;;
29044;SDS011;16133;49.486;12.176;2022-12-20T04:44:45;51.03;;;19.90;;
29044;SDS011;16133;49.486;12.176;2022-12-20T04:47:11;46.88;;;18.88;;
29044;SDS011;16133;49.486;12.176;2022-12-20T04:49:36;50.08;;;20.48;;
29044;SDS011;16133;49.486;12.176;2022-12-20T04:52:02;51.17;;;19.88;;
29044;SDS011;16133;49.486;12.176;2022-12-20T04:54:45;49.60;;;20.02;;
29044;SDS011;16133;49.486;12.176;2022-12-20T04:57:11;50.70;;;20.48;;
29044;SDS011;16133;49.486;12.176;2022-12-20T05:02:46;50.25;;;20.02;;
29044;SDS011;16133;49.486;12.176;2022-12-20T05:05:12;51.22;;;18.95;;
29044;SDS011;16133;49.486;12.176;2022-12-20T05:07:38;46.40;;;18.25;;
29044;SDS011;16133;49.486;12.176;2022-12-20T05:10:03;48.83;;;19.95;;
29044;SDS011;16133;49.486;12.176;2022-12-20T05:12:29;50.95;;;19.92;;
29044;SDS011;16133;49.486;12.176;2022-12-20T05:14:54;46.85;;;17.92;;
29044;SDS011;16133;49.486;12.176;2022-12-20T05:17:20;43.80;;;19.08;;
29044;SDS011;16133;49.486;12.176;2022-12-20T05:19:45;49.40;;;18.67;;
29044;SDS011;16133;49.486;12.176;2022-12-20T05:22:11;46.33;;;20.05;;
29044;SDS011;16133;49.486;12.176;2022-12-20T05:24:55;51.70;;;20.25;;
29044;SDS011;16133;49.486;12.176;2022-12-20T05:27:39;51.17;;;21.00;;
29044;SDS011;16133;49.486;12.176;2022-12-20T05:30:04;52.65;;;21.20;;
29044;SDS011;16133;49.486;12.176;2022-12-20T05:32:30;56.80;;;23.38;;
29044;SDS011;16133;49.486;12.176;2022-12-20T05:34:55;54.05;;;22.63;;
29044;SDS011;16133;49.486;12.176;2022-12-20T05:37:21;60.10;;;23.25;;
29044;SDS011;16133;49.486;12.176;2022-12-20T05:39:46;57.30;;;22.52;;
29044;SDS011;16133;49.486;12.176;2022-12-20T05:42:11;50.78;;;21.65;;
29044;SDS011;16133;49.486;12.176;2022-12-20T05:44:37;54.20;;;22.85;;
29044;SDS011;16133;49.486;12.176;2022-12-20T05:47:02;52.63;;;20.40;;
29044;SDS011;16133;49.486;12.176;2022-12-20T05:49:28;53.67;;;20.42;;
29044;SDS011;16133;49.486;12.176;2022-12-20T05:51:53;45.90;;;18.52;;
29044;SDS011;16133;49.486;12.176;2022-12-20T05:54:18;44.20;;;19.90;;
29044;SDS011;16133;49.486;12.176;2022-12-20T05:56:44;53.17;;;22.13;;
29044;SDS011;16133;49.486;12.176;2022-12-20T05:59:09;51.83;;;21.73;;
29044;SDS011;16133;49.486;12.176;2022-12-20T06:01:34;56.95;;;21.77;;
29044;SDS011;16133;49.486;12.176;2022-12-20T06:04:00;51.47;;;19.98;;
29044;SDS011;16133;49.486;12.176;2022-12-20T06:06:26;50.10;;;19.63;;
29044;SDS011;16133;49.486;12.176;2022-12-20T06:08:51;54.70;;;20.42;;
29044;SDS011;16133;49.486;12.176;2022-12-20T06:11:17;53.55;;;20.17;;
29044;SDS011;16133;49.486;12.176;2022-12-20T06:13:42;52.78;;;19.83;;
29044;SDS011;16133;49.486;12.176;2022-12-20T06:16:07;53.20;;;22.42;;
29044;SDS011;16133;49.486;12.176;2022-12-20T06:18:33;56.47;;;21.70;;
29044;SDS011;16133;49.486;12.176;2022-12-20T06:20:58;47.95;;;20.45;;
29044;SDS011;16133;49.486;12.176;2022-12-20T06:23:24;57.65;;;21.85;;
29044;SDS011;16133;49.486;12.176;2022-12-20T06:25:49;56.00;;;20.80;;
29044;SDS011;16133;49.486;12.176;2022-12-20T06:28:15;54.50;;;21.35;;
29044;SDS011;16133;49.486;12.176;2022-12-20T06:30:50;57.63;;;21.88;;
29044;SDS011;16133;49.486;12.176;2022-12-20T06:33:17;52.20;;;21.38;;
29044;SDS011;16133;49.486;12.176;2022-12-20T06:35:42;56.40;;;21.02;;
29044;SDS011;16133;49.486;12.176;2022-12-20T06:38:07;59.25;;;22.00;;
29044;SDS011;16133;49.486;12.176;2022-12-20T06:40:33;63.47;;;23.13;;
29044;SDS011;16133;49.486;12.176;2022-12-20T06:42:58;55.75;;;20.80;;
29044;SDS011;16133;49.486;12.176;2022-12-20T06:45:23;55.50;;;21.00;;
29044;SDS011;16133;49.486;12.176;2022-12-20T06:47:49;63.95;;;22.90;;
29044;SDS011;16133;49.486;12.176;2022-12-20T06:50:14;55.10;;;21.50;;
29044;SDS011;16133;49.486;12.176;2022-12-20T06:52:39;54.50;;;20.77;;
29044;SDS011;16133;49.486;12.176;2022-12-20T06:55:05;53.55;;;21.05;;
29044;SDS011;16133;49.486;12.176;2022-12-20T06:57:30;53.38;;;20.63;;
29044;SDS011;16133;49.486;12.176;2022-12-20T06:59:57;51.40;;;20.88;;
29044;SDS011;16133;49.486;12.176;2022-12-20T07:02:22;48.17;;;19.23;;
29044;SDS011;16133;49.486;12.176;2022-12-20T07:04:47;57.05;;;22.40;;
29044;SDS011;16133;49.486;12.176;2022-12-20T07:07:13;49.97;;;20.70;;
29044;SDS011;16133;49.486;12.176;2022-12-20T07:09:38;52.42;;;21.55;;
29044;SDS011;16133;49.486;12.176;2022-12-20T07:12:05;57.13;;;20.63;;
29044;SDS011;16133;49.486;12.176;2022-12-20T07:14:32;49.25;;;19.63;;
29044;SDS011;16133;49.486;12.176;2022-12-20T07:16:57;55.60;;;20.58;;
29044;SDS011;16133;49.486;12.176;2022-12-20T07:19:23;58.53;;;21.13;;
29044;SDS011;16133;49.486;12.176;2022-12-20T07:21:48;48.92;;;21.23;;
29044;SDS011;16133;49.486;12.176;2022-12-20T07:24:13;54.92;;;21.45;;
29044;SDS011;16133;49.486;12.176;2022-12-20T07:26:39;52.10;;;19.30;;
29044;SDS011;16133;49.486;12.176;2022-12-20T07:29:04;52.92;;;20.80;;
29044;SDS011;16133;49.486;12.176;2022-12-20T07:31:30;52.38;;;20.42;;
29044;SDS011;16133;49.486;12.176;2022-12-20T07:33:55;54.45;;;20.38;;
29044;SDS011;16133;49.486;12.176;2022-12-20T07:36:21;53.65;;;19.83;;
29044;SDS011;16133;49.486;12.176;2022-12-20T07:38:46;50.28;;;20.05;;
29044;SDS011;16133;49.486;12.176;2022-12-20T07:41:13;50.95;;;20.38;;
29044;SDS011;16133;49.486;12.176;2022-12-20T07:43:40;48.03;;;19.05;;
29044;SDS011;16133;49.486;12.176;2022-12-20T07:46:06;53.28;;;21.27;;
29044;SDS011;16133;49.486;12.176;2022-12-20T07:48:33;52.00;;;20.08;;
29044;SDS011;16133;49.486;12.176;2022-12-20T07:51:01;49.15;;;19.00;;
29044;SDS011;16133;49.486;12.176;2022-12-20T07:53:31;43.70;;;17.90;;
29044;SDS011;16133;49.486;12.176;2022-12-20T07:56:00;53.42;;;20.05;;
29044;SDS011;16133;49.486;12.176;2022-12-20T07:58:26;47.80;;;19.13;;
29044;SDS011;16133;49.486;12.176;2022-12-20T08:00:54;55.15;;;20.33;;
29044;SDS011;16133;49.486;12.176;2022-12-20T08:03:26;49.88;;;19.63;;
29044;SDS011;16133;49.486;12.176;2022-12-20T08:05:56;54.15;;;19.20;;
29044;SDS011;16133;49.486;12.176;2022-12-20T08:08:24;47.95;;;19.33;;
29044;SDS011;16133;49.486;12.176;2022-12-20T08:10:50;47.40;;;18.38;;
29044;SDS011;16133;49.486;12.176;2022-12-20T08:13:16;51.22;;;19.38;;
29044;SDS011;16133;49.486;12.176;2022-12-20T08:15:42;51.85;;;20.20;;
29044;SDS011;16133;49.486;12.176;2022-12-20T08:18:07;53.60;;;20.08;;
29044;SDS011;16133;49.486;12.176;2022-12-20T08:20:33;50.80;;;19.77;;
29044;SDS011;16133;49.486;12.176;2022-12-20T08:22:58;51.35;;;19.13;;
29044;SDS011;16133;49.486;12.176;2022-12-20T08:25:24;44.92;;;19.50;;
29044;SDS011;16133;49.486;12.176;2022-12-20T08:27:49;48.55;;;20.08;;
29044;SDS011;16133;49.486;12.176;2022-12-20T08:30:15;51.00;;;19.95;;
29044;SDS011;16133;49.486;12.176;2022-12-20T08:32:41;55.20;;;22.23;;
29044;SDS011;16133;49.486;12.176;2022-12-20T08:35:06;54.47;;;21.17;;
29044;SDS011;16133;49.486;12.176;2022-12-20T08:37:32;59.08;;;22.42;;
29044;SDS011;16133;49.486;12.176;2022-12-20T08:39:57;51.75;;;19.17;;
29044;SDS011;16133;49.486;12.176;2022-12-20T08:42:24;49.80;;;19.08;;
29044;SDS011;16133;49.486;12.176;2022-12-20T08:44:50;54.53;;;20.80;;
29044;SDS011;16133;49.486;12.176;2022-12-20T08:47:16;57.45;;;22.58;;
29044;SDS011;16133;49.486;12.176;2022-12-20T08:49:41;47.53;;;21.13;;
29044;SDS011;16133;49.486;12.176;2022-12-20T08:52:06;55.70;;;22.35;;
29044;SDS011;16133;49.486;12.176;2022-12-20T08:54:32;55.97;;;20.95;;
29044;SDS011;16133;49.486;12.176;2022-12-20T08:56:57;51.40;;;21.17;;
29044;SDS011;16133;49.486;12.176;2022-12-20T08:59:23;50.22;;;20.10;;
29044;SDS011;16133;49.486;12.176;2022-12-20T09:01:48;53.10;;;21.73;;
29044;SDS011;16133;49.486;12.176;2022-12-20T09:04:14;50.95;;;21.00;;
29044;SDS011;16133;49.486;12.176;2022-12-20T09:06:40;48.05;;;18.55;;
29044;SDS011;16133;49.486;12.176;2022-12-20T09:09:05;47.97;;;18.20;;
29044;SDS011;16133;49.486;12.176;2022-12-20T09:11:31;48.15;;;19.33;;
29044;SDS011;16133;49.486;12.176;2022-12-20T09:13:57;49.22;;;18.63;;
29044;SDS011;16133;49.486;12.176;2022-12-20T09:16:24;44.85;;;18.40;;
29044;SDS011;16133;49.486;12.176;2022-12-20T09:18:52;48.42;;;19.50;;
29044;SDS011;16133;49.486;12.176;2022-12-20T09:21:20;45.80;;;19.00;;
29044;SDS011;16133;49.486;12.176;2022-12-20T09:23:46;54.55;;;19.42;;
29044;SDS011;16133;49.486;12.176;2022-12-20T09:26:14;42.08;;;17.30;;
29044;SDS011;16133;49.486;12.176;2022-12-20T09:28:41;42.28;;;18.80;;
29044;SDS011;16133;49.486;12.176;2022-12-20T09:31:07;49.15;;;19.00;;
29044;SDS011;16133;49.486;12.176;2022-12-20T09:33:36;43.67;;;18.00;;
29044;SDS011;16133;49.486;12.176;2022-12-20T09:36:02;45.20;;;17.13;;
29044;SDS011;16133;49.486;12.176;2022-12-20T09:38:29;40.72;;;16.30;;
29044;SDS011;16133;49.486;12.176;2022-12-20T09:40:57;41.47;;;17.83;;
29044;SDS011;16133;49.486;12.176;2022-12-20T09:43:25;37.88;;;17.15;;
29044;SDS011;16133;49.486;12.176;2022-12-20T09:46:01;44.92;;;18.13;;
29044;SDS011;16133;49.486;12.176;2022-12-20T09:48:29;43.22;;;16.38;;
29044;SDS011;16133;49.486;12.176;2022-12-20T09:51:13;42.33;;;16.98;;
29044;SDS011;16133;49.486;12.176;2022-12-20T09:59:13;39.65;;;16.83;;
29044;SDS011;16133;49.486;12.176;2022-12-20T10:01:42;39.28;;;15.00;;
29044;SDS011;16133;49.486;12.176;2022-12-20T10:04:28;37.15;;;15.50;;
29044;SDS011;16133;49.486;12.176;2022-12-20T10:10:30;41.60;;;16.75;;
29044;SDS011;16133;49.486;12.176;2022-12-20T10:19:07;40.35;;;17.55;;
29044;SDS011;16133;49.486;12.176;2022-12-20T10:21:46;43.53;;;15.57;;
29044;SDS011;16133;49.486;12.176;2022-12-20T10:24:23;39.40;;;17.40;;
29044;SDS011;16133;49.486;12.176;2022-12-20T10:26:53;40.65;;;18.15;;
29044;SDS011;16133;49.486;12.176;2022-12-20T10:29:18;43.80;;;19.75;;
29044;SDS011;16133;49.486;12.176;2022-12-20T10:31:45;40.72;;;17.95;;
29044;SDS011;16133;49.486;12.176;2022-12-20T10:34:13;43.88;;;18.17;;
29044;SDS011;16133;49.486;12.176;2022-12-20T10:36:39;38.47;;;16.38;;
29044;SDS011;16133;49.486;12.176;2022-12-20T10:39:06;43.55;;;16.85;;
29044;SDS011;16133;49.486;12.176;2022-12-20T10:44:27;43.08;;;17.10;;
29044;SDS011;16133;49.486;12.176;2022-12-20T10:46:54;41.45;;;16.20;;
29044;SDS011;16133;49.486;12.176;2022-12-20T10:49:37;38.47;;;15.60;;
29044;SDS011;16133;49.486;12.176;2022-12-20T10:57:22;38.75;;;15.57;;
29044;SDS011;16133;49.486;12.176;2022-12-20T10:59:52;36.58;;;16.95;;
29044;SDS011;16133;49.486;12.176;2022-12-20T11:02:30;48.40;;;17.45;;
29044;SDS011;16133;49.486;12.176;2022-12-20T11:07:35;39.75;;;14.93;;
29044;SDS011;16133;49.486;12.176;2022-12-20T11:10:25;42.53;;;16.10;;
29044;SDS011;16133;49.486;12.176;2022-12-20T11:12:52;37.45;;;15.43;;
29044;SDS011;16133;49.486;12.176;2022-12-20T11:15:19;33.15;;;14.93;;
29044;SDS011;16133;49.486;12.176;2022-12-20T11:17:49;36.30;;;15.27;;
29044;SDS011;16133;49.486;12.176;2022-12-20T11:23:18;32.15;;;13.60;;
29044;SDS011;16133;49.486;12.176;2022-12-20T11:45:34;37.88;;;14.82;;
29044;SDS011;16133;49.486;12.176;2022-12-20T11:48:18;27.35;;;11.32;;
29044;SDS011;16133;49.486;12.176;2022-12-20T11:51:06;40.13;;;16.40;;
29044;SDS011;16133;49.486;12.176;2022-12-20T11:53:37;38.30;;;15.32;;
29044;SDS011;16133;49.486;12.176;2022-12-20T11:56:16;38.30;;;16.10;;
29044;SDS011;16133;49.486;12.176;2022-12-20T12:01:44;37.53;;;15.65;;
29044;SDS011;16133;49.486;12.176;2022-12-20T12:06:42;33.03;;;13.57;;
29044;SDS011;16133;49.486;12.176;2022-12-20T12:09:19;32.42;;;14.30;;
29044;SDS011;16133;49.486;12.176;2022-12-20T12:11:53;32.53;;;13.23;;
29044;SDS011;16133;49.486;12.176;2022-12-20T12:14:47;35.55;;;14.57;;
29044;SDS011;16133;49.486;12.176;2022-12-20T12:17:28;34.00;;;13.60;;
29044;SDS011;16133;49.486;12.176;2022-12-20T12:23:20;32.25;;;14.55;;
29044;SDS011;16133;49.486;12.176;2022-12-20T12:26:09;34.90;;;13.80;;
29044;SDS011;16133;49.486;12.176;2022-12-20T12:28:39;33.15;;;13.88;;
29044;SDS011;16133;49.486;12.176;2022-12-20T12:31:10;31.13;;;13.90;;
29044;SDS011;16133;49.486;12.176;2022-12-20T12:34:04;31.75;;;14.50;;
29044;SDS011;16133;49.486;12.176;2022-12-20T12:36:52;35.42;;;14.65;;
29044;SDS011;16133;49.486;12.176;2022-12-20T12:44:55;31.08;;;13.55;;
29044;SDS011;16133;49.486;12.176;2022-12-20T12:50:02;27.13;;;12.48;;
29044;SDS011;16133;49.486;12.176;2022-12-20T13:08:48;28.08;;;13.07;;
29044;SDS011;16133;49.486;12.176;2022-12-20T13:11:40;30.45;;;12.52;;
29044;SDS011;16133;49.486;12.176;2022-12-20T13:16:51;34.05;;;13.38;;
29044;SDS011;16133;49.486;12.176;2022-12-20T13:21:57;36.05;;;14.32;;
29044;SDS011;16133;49.486;12.176;2022-12-20T13:24:56;37.15;;;15.18;;
29044;SDS011;16133;49.486;12.176;2022-12-20T13:32:57;30.23;;;14.00;;
29044;SDS011;16133;49.486;12.176;2022-12-20T13:37:53;33.33;;;13.98;;
29044;SDS011;16133;49.486;12.176;2022-12-20T13:43:07;33.72;;;14.70;;
29044;SDS011;16133;49.486;12.176;2022-12-20T13:45:54;40.80;;;17.25;;
29044;SDS011;16133;49.486;12.176;2022-12-20T13:48:34;39.67;;;16.90;;
29044;SDS011;16133;49.486;12.176;2022-12-20T13:51:14;47.92;;;19.55;;
29044;SDS011;16133;49.486;12.176;2022-12-20T13:53:48;43.40;;;18.13;;
29044;SDS011;16133;49.486;12.176;2022-12-20T13:59:48;38.28;;;16.98;;
29044;SDS011;16133;49.486;12.176;2022-12-20T14:01:53;40.10;;;16.85;;
29044;SDS011;16133;49.486;12.176;2022-12-20T14:04:20;39.50;;;16.80;;
29044;SDS011;16133;49.486;12.176;2022-12-20T14:06:50;42.05;;;16.70;;
29044;SDS011;16133;49.486;12.176;2022-12-20T14:09:54;43.95;;;17.85;;
29044;SDS011;16133;49.486;12.176;2022-12-20T14:12:13;27.65;;;11.45;;
29044;SDS011;16133;49.486;12.176;2022-12-20T14:14:47;35.28;;;15.10;;
29044;SDS011;16133;49.486;12.176;2022-12-20T14:25:30;38.40;;;16.08;;
29044;SDS011;16133;49.486;12.176;2022-12-20T14:27:58;35.15;;;16.08;;
29044;SDS011;16133;49.486;12.176;2022-12-20T14:30:45;41.47;;;16.98;;
29044;SDS011;16133;49.486;12.176;2022-12-20T14:33:24;41.67;;;17.45;;
29044;SDS011;16133;49.486;12.176;2022-12-20T14:35:53;41.85;;;16.60;;
29044;SDS011;16133;49.486;12.176;2022-12-20T14:38:20;36.28;;;15.38;;
29044;SDS011;16133;49.486;12.176;2022-12-20T14:40:54;36.05;;;15.98;;
29044;SDS011;16133;49.486;12.176;2022-12-20T14:43:27;39.15;;;14.85;;
29044;SDS011;16133;49.486;12.176;2022-12-20T14:51:42;37.53;;;14.57;;
29044;SDS011;16133;49.486;12.176;2022-12-20T14:54:18;37.33;;;15.57;;
29044;SDS011;16133;49.486;12.176;2022-12-20T14:56:51;38.35;;;15.38;;
29044;SDS011;16133;49.486;12.176;2022-12-20T14:59:21;37.20;;;15.35;;
29044;SDS011;16133;49.486;12.176;2022-12-20T15:01:49;38.25;;;15.73;;
29044;SDS011;16133;49.486;12.176;2022-12-20T15:06:55;39.17;;;14.48;;
29044;SDS011;16133;49.486;12.176;2022-12-20T15:09:21;34.95;;;14.45;;
29044;SDS011;16133;49.486;12.176;2022-12-20T15:11:46;35.33;;;14.70;;
29044;SDS011;16133;49.486;12.176;2022-12-20T15:14:28;36.85;;;15.73;;
29044;SDS011;16133;49.486;12.176;2022-12-20T15:16:59;41.22;;;16.52;;
29044;SDS011;16133;49.486;12.176;2022-12-20T15:19:24;36.78;;;14.93;;
29044;SDS011;16133;49.486;12.176;2022-12-20T15:21:50;47.13;;;19.05;;
29044;SDS011;16133;49.486;12.176;2022-12-20T15:24:21;40.95;;;17.10;;
29044;SDS011;16133;49.486;12.176;2022-12-20T15:26:51;43.33;;;17.48;;
29044;SDS011;16133;49.486;12.176;2022-12-20T15:29:19;45.25;;;18.48;;
29044;SDS011;16133;49.486;12.176;2022-12-20T15:31:49;53.33;;;21.63;;
29044;SDS011;16133;49.486;12.176;2022-12-20T15:36:44;54.58;;;20.00;;
29044;SDS011;16133;49.486;12.176;2022-12-20T15:39:10;48.38;;;19.45;;
29044;SDS011;16133;49.486;12.176;2022-12-20T15:41:36;50.47;;;20.55;;
29044;SDS011;16133;49.486;12.176;2022-12-20T15:44:09;49.97;;;19.17;;
29044;SDS011;16133;49.486;12.176;2022-12-20T15:46:38;43.90;;;19.92;;
29044;SDS011;16133;49.486;12.176;2022-12-20T15:49:03;50.28;;;19.67;;
29044;SDS011;16133;49.486;12.176;2022-12-20T15:51:35;47.55;;;18.30;;
29044;SDS011;16133;49.486;12.176;2022-12-20T15:54:06;47.97;;;19.60;;
29044;SDS011;16133;49.486;12.176;2022-12-20T15:56:38;51.97;;;18.80;;
29044;SDS011;16133;49.486;12.176;2022-12-20T15:59:03;48.72;;;18.85;;
29044;SDS011;16133;49.486;12.176;2022-12-20T16:01:35;50.45;;;17.92;;
29044;SDS011;16133;49.486;12.176;2022-12-20T16:04:03;45.70;;;16.85;;
29044;SDS011;16133;49.486;12.176;2022-12-20T16:06:29;43.90;;;18.15;;
29044;SDS011;16133;49.486;12.176;2022-12-20T16:08:55;44.55;;;20.25;;
29044;SDS011;16133;49.486;12.176;2022-12-20T16:11:21;50.33;;;20.88;;
29044;SDS011;16133;49.486;12.176;2022-12-20T16:13:49;53.00;;;22.23;;
29044;SDS011;16133;49.486;12.176;2022-12-20T16:16:19;58.95;;;25.38;;
29044;SDS011;16133;49.486;12.176;2022-12-20T16:18:47;50.53;;;22.27;;
29044;SDS011;16133;49.486;12.176;2022-12-20T16:21:19;48.45;;;20.88;;
29044;SDS011;16133;49.486;12.176;2022-12-20T16:23:47;44.92;;;18.88;;
29044;SDS011;16133;49.486;12.176;2022-12-20T16:26:15;57.08;;;21.80;;
29044;SDS011;16133;49.486;12.176;2022-12-20T16:28:43;45.30;;;20.17;;
29044;SDS011;16133;49.486;12.176;2022-12-20T16:31:27;48.08;;;18.83;;
29044;SDS011;16133;49.486;12.176;2022-12-20T16:33:57;46.25;;;18.08;;
29044;SDS011;16133;49.486;12.176;2022-12-20T16:36:24;41.60;;;17.17;;
29044;SDS011;16133;49.486;12.176;2022-12-20T16:38:50;40.83;;;16.77;;
29044;SDS011;16133;49.486;12.176;2022-12-20T16:41:17;45.65;;;17.13;;
29044;SDS011;16133;49.486;12.176;2022-12-20T16:43:43;38.05;;;14.82;;
29044;SDS011;16133;49.486;12.176;2022-12-20T16:46:10;40.97;;;14.82;;